Airfield :
LOGIN :

Register | Disclaimer

   EN    FR    IT 

 










Legend :    VFR   Marginal VFR   IFR   Intensive IFR   Very Intensive IFR
Visi :
Ceiling :
>= 8 km
>= 3000ft
5 to 8 km
1000 to 3000 ft
1500m to 5 km
500 to 1000 ft
800 to 1500m
200 to 500 ft
< 800m
< 200 ft
Symbols :   Thunderstorms  Fog  Heavy snow  Heavy precipitations  Wind > 20 kt
SIGMETs :     Misc.  Thunderstorms  Icing  Turbulence  Mountain Waves  Volcanic Ashes






- Airport Elevation : 1363 ft


ETIC - Grafenwohr Army Air Field

CURRENT METAR :
  • 220840Z AUTO 28008KT 9999 FEW026 SCT034 18/11 A2996 RMK AO2 SLP145 $

EXPIRED METARs :
  • 220810Z AUTO 27006KT 9999 BKN025 17/11 A2997 RMK AO2 SLP148 $
  • 220655Z AUTO 28009KT 9999 FEW017 15/11 A2996 RMK AO2 RAE00DZB00E03 SLP146 P0000 T01540110 $
  • 220618Z AUTO 25005KT 9999 FEW016 FEW023 SCT029 OVC038 15/12 A2996 RMK AO2 RAE00DZB00E03 SLP145 $
  • 220603Z AUTO 29005KT 9999 SCT008 BKN015 BKN024 OVC028 14/12 A2996 RMK AO2 RAE00DZB00E03 CIG 009V015 SLP146 $
  • 220555Z AUTO 29010G15KT 8000 -RA BKN009 BKN014 OVC023 15/12 A2996 RMK AO2 DZB40E44RAB44 SLP145 P0002 60007 T01450120 10160 20145 52017 $
  • 220540Z AUTO 25006KT 9999 DZ OVC011 16/14 A2995 RMK AO2 DZB40 SLP141 $
  • 220525Z AUTO 24005KT 9999 BKN012 OVC032 15/13 A2994 RMK AO2 SLP139 $
  • 220510Z AUTO 25006KT 9999 SCT015 OVC030 15/13 A2994 RMK AO2 SLP139 $
  • 220455Z AUTO 25006KT 9999 SCT015 OVC027 15/13 A2994 RMK AO2 CIG 014V027 SLP139 T01520130 $
  • 220355Z AUTO 24006KT 9999 FEW018 SCT025 OVC029 15/13 A2991 RMK AO2 SLP128 T01520134 $

TAF TAF ETIC
Valid from the 21 at 18:00 until the 23 at 00:00 UTC


2118/2224 28006KT 8000 -RA BKN030 QNH3000INS
TEMPO 2118/2124 TSRA BKN030CB
BECMG 2203/2204 VRB06KT 9999 NSW SCT035 BKN080 QNH3000INS TX18/2118Z TN14/2203Z LAST NO AMDS AFT 2121 NEXT 2406



MET'MAP, your aeronautical weather chart ! - Copyright ORBIFLY December 2007 - Disclaimer

ORBIFLY MET'MAP TEAM :

Programming & Development : Alexandra Zaïnal
Original concept : Baudouin d'Aumeries
Technical & hardware support : Manuel Goepfert
Assistance : Marc-Olivier Méhu




SOURCES & CREDITS :

   NOAA